sensor_id;sensor_type;location;lat;lon;timestamp;temperature;humidity
38480;DHT22;62333;51.980;5.934;2024-03-23T00:55:40;13.30;80.10
38480;DHT22;62333;51.980;5.934;2024-03-23T00:58:06;13.20;80.10
38480;DHT22;62333;51.980;5.934;2024-03-23T01:00:32;13.20;80.10
38480;DHT22;62333;51.980;5.934;2024-03-23T01:02:57;13.20;80.30
38480;DHT22;62333;51.980;5.934;2024-03-23T01:05:23;13.10;80.30
38480;DHT22;62333;51.980;5.934;2024-03-23T01:07:49;13.10;80.20
38480;DHT22;62333;51.980;5.934;2024-03-23T01:10:14;13.10;80.20
38480;DHT22;62333;51.980;5.934;2024-03-23T01:12:40;13.00;80.20
38480;DHT22;62333;51.980;5.934;2024-03-23T01:15:06;13.00;80.20
38480;DHT22;62333;51.980;5.934;2024-03-23T01:17:31;13.00;80.30
38480;DHT22;62333;51.980;5.934;2024-03-23T01:19:57;13.00;80.30
38480;DHT22;62333;51.980;5.934;2024-03-23T01:22:23;13.00;80.30
38480;DHT22;62333;51.980;5.934;2024-03-23T01:24:49;12.90;80.30
38480;DHT22;62333;51.980;5.934;2024-03-23T01:27:14;12.90;80.30
38480;DHT22;62333;51.980;5.934;2024-03-23T01:29:40;13.00;80.40
38480;DHT22;62333;51.980;5.934;2024-03-23T01:32:06;12.90;80.40
38480;DHT22;62333;51.980;5.934;2024-03-23T01:34:32;13.00;80.40
38480;DHT22;62333;51.980;5.934;2024-03-23T01:36:58;12.90;80.30
38480;DHT22;62333;51.980;5.934;2024-03-23T01:39:24;13.00;80.30
38480;DHT22;62333;51.980;5.934;2024-03-23T01:41:50;13.00;80.20
38480;DHT22;62333;51.980;5.934;2024-03-23T01:44:16;12.90;80.10
38480;DHT22;62333;51.980;5.934;2024-03-23T01:46:43;12.90;80.10
38480;DHT22;62333;51.980;5.934;2024-03-23T01:49:10;12.90;80.70
38480;DHT22;62333;51.980;5.934;2024-03-23T01:51:36;12.90;80.10
38480;DHT22;62333;51.980;5.934;2024-03-23T01:54:03;12.90;80.10
38480;DHT22;62333;51.980;5.934;2024-03-23T01:56:33;12.90;80.10
38480;DHT22;62333;51.980;5.934;2024-03-23T01:59:04;12.90;80.00
38480;DHT22;62333;51.980;5.934;2024-03-23T02:01:30;12.90;80.20
38480;DHT22;62333;51.980;5.934;2024-03-23T02:03:56;12.90;80.10
38480;DHT22;62333;51.980;5.934;2024-03-23T02:06:22;13.00;80.10
38480;DHT22;62333;51.980;5.934;2024-03-23T02:08:48;13.00;80.10
38480;DHT22;62333;51.980;5.934;2024-03-23T02:11:14;13.00;80.00
38480;DHT22;62333;51.980;5.934;2024-03-23T02:13:39;13.00;80.00
38480;DHT22;62333;51.980;5.934;2024-03-23T02:16:05;13.00;79.90
38480;DHT22;62333;51.980;5.934;2024-03-23T02:18:34;13.00;79.90
38480;DHT22;62333;51.980;5.934;2024-03-23T02:21:00;13.00;79.80
38480;DHT22;62333;51.980;5.934;2024-03-23T02:23:26;13.00;79.80
38480;DHT22;62333;51.980;5.934;2024-03-23T02:25:52;13.00;79.80
38480;DHT22;62333;51.980;5.934;2024-03-23T02:28:19;13.00;79.70
38480;DHT22;62333;51.980;5.934;2024-03-23T02:30:44;13.00;79.70
38480;DHT22;62333;51.980;5.934;2024-03-23T02:33:10;12.90;79.60
38480;DHT22;62333;51.980;5.934;2024-03-23T02:35:36;13.00;79.60
38480;DHT22;62333;51.980;5.934;2024-03-23T02:38:02;13.00;79.60
38480;DHT22;62333;51.980;5.934;2024-03-23T02:40:28;12.90;79.50
38480;DHT22;62333;51.980;5.934;2024-03-23T02:42:54;12.90;79.40
38480;DHT22;62333;51.980;5.934;2024-03-23T02:45:19;12.90;79.30
38480;DHT22;62333;51.980;5.934;2024-03-23T02:47:45;12.80;79.30
38480;DHT22;62333;51.980;5.934;2024-03-23T02:50:11;12.70;79.40
38480;DHT22;62333;51.980;5.934;2024-03-23T02:52:37;12.70;79.50
38480;DHT22;62333;51.980;5.934;2024-03-23T02:55:03;12.60;79.50
38480;DHT22;62333;51.980;5.934;2024-03-23T02:57:29;12.60;79.50
38480;DHT22;62333;51.980;5.934;2024-03-23T02:59:54;12.60;79.40
38480;DHT22;62333;51.980;5.934;2024-03-23T03:02:21;12.60;79.40
38480;DHT22;62333;51.980;5.934;2024-03-23T03:04:47;12.60;79.50
38480;DHT22;62333;51.980;5.934;2024-03-23T03:07:13;12.60;79.60
38480;DHT22;62333;51.980;5.934;2024-03-23T03:09:39;12.60;79.60
38480;DHT22;62333;51.980;5.934;2024-03-23T03:12:07;12.60;79.50
38480;DHT22;62333;51.980;5.934;2024-03-23T03:14:34;12.50;79.50
38480;DHT22;62333;51.980;5.934;2024-03-23T03:17:00;12.50;79.50
38480;DHT22;62333;51.980;5.934;2024-03-23T03:19:26;12.50;79.50
38480;DHT22;62333;51.980;5.934;2024-03-23T03:21:51;12.50;79.50
38480;DHT22;62333;51.980;5.934;2024-03-23T03:24:17;12.50;79.60
38480;DHT22;62333;51.980;5.934;2024-03-23T03:26:43;12.40;79.60
38480;DHT22;62333;51.980;5.934;2024-03-23T03:29:08;12.40;79.60
38480;DHT22;62333;51.980;5.934;2024-03-23T03:31:34;12.40;79.60
38480;DHT22;62333;51.980;5.934;2024-03-23T03:34:00;12.30;80.20
38480;DHT22;62333;51.980;5.934;2024-03-23T03:36:26;12.30;79.70
38480;DHT22;62333;51.980;5.934;2024-03-23T03:38:51;12.30;79.70
38480;DHT22;62333;51.980;5.934;2024-03-23T03:41:19;12.30;79.70
38480;DHT22;62333;51.980;5.934;2024-03-23T03:43:44;12.40;79.70
38480;DHT22;62333;51.980;5.934;2024-03-23T03:46:10;12.30;79.80
38480;DHT22;62333;51.980;5.934;2024-03-23T03:48:36;12.30;79.80
38480;DHT22;62333;51.980;5.934;2024-03-23T03:51:02;12.40;79.80
38480;DHT22;62333;51.980;5.934;2024-03-23T03:53:28;12.40;79.70
38480;DHT22;62333;51.980;5.934;2024-03-23T03:55:53;12.40;79.60
38480;DHT22;62333;51.980;5.934;2024-03-23T03:58:19;12.40;79.60
38480;DHT22;62333;51.980;5.934;2024-03-23T04:00:44;12.40;79.70
38480;DHT22;62333;51.980;5.934;2024-03-23T04:03:10;12.40;79.70
38480;DHT22;62333;51.980;5.934;2024-03-23T04:05:36;12.40;79.70
38480;DHT22;62333;51.980;5.934;2024-03-23T04:08:01;12.40;79.60
38480;DHT22;62333;51.980;5.934;2024-03-23T04:10:27;12.30;79.60
38480;DHT22;62333;51.980;5.934;2024-03-23T04:12:53;12.30;79.60
38480;DHT22;62333;51.980;5.934;2024-03-23T04:15:21;12.30;79.50
38480;DHT22;62333;51.980;5.934;2024-03-23T04:17:47;12.30;79.50
38480;DHT22;62333;51.980;5.934;2024-03-23T04:20:13;12.30;79.50
38480;DHT22;62333;51.980;5.934;2024-03-23T04:22:42;12.30;79.50
38480;DHT22;62333;51.980;5.934;2024-03-23T04:25:08;12.30;79.40
38480;DHT22;62333;51.980;5.934;2024-03-23T04:27:36;12.30;79.40
38480;DHT22;62333;51.980;5.934;2024-03-23T04:30:03;12.30;79.40
38480;DHT22;62333;51.980;5.934;2024-03-23T04:32:30;12.30;79.30
38480;DHT22;62333;51.980;5.934;2024-03-23T04:34:55;12.20;79.20
38480;DHT22;62333;51.980;5.934;2024-03-23T04:37:22;12.20;79.10
38480;DHT22;62333;51.980;5.934;2024-03-23T04:39:48;12.20;79.10
38480;DHT22;62333;51.980;5.934;2024-03-23T04:42:17;12.20;79.10
38480;DHT22;62333;51.980;5.934;2024-03-23T04:44:42;12.20;79.00
38480;DHT22;62333;51.980;5.934;2024-03-23T04:47:08;12.20;79.00
38480;DHT22;62333;51.980;5.934;2024-03-23T04:49:34;12.10;78.80
38480;DHT22;62333;51.980;5.934;2024-03-23T04:52:05;12.10;78.80
38480;DHT22;62333;51.980;5.934;2024-03-23T04:54:30;12.10;78.80
38480;DHT22;62333;51.980;5.934;2024-03-23T04:56:58;12.00;78.80
38480;DHT22;62333;51.980;5.934;2024-03-23T04:59:23;12.00;78.70
38480;DHT22;62333;51.980;5.934;2024-03-23T05:01:49;12.00;78.70
38480;DHT22;62333;51.980;5.934;2024-03-23T05:04:15;12.00;78.70
38480;DHT22;62333;51.980;5.934;2024-03-23T05:06:40;12.00;78.70
38480;DHT22;62333;51.980;5.934;2024-03-23T05:09:06;11.90;78.60
38480;DHT22;62333;51.980;5.934;2024-03-23T05:11:33;11.90;78.60
38480;DHT22;62333;51.980;5.934;2024-03-23T05:13:59;11.90;78.60
38480;DHT22;62333;51.980;5.934;2024-03-23T05:16:25;11.90;78.60
38480;DHT22;62333;51.980;5.934;2024-03-23T05:18:51;11.90;78.50
38480;DHT22;62333;51.980;5.934;2024-03-23T05:21:17;11.80;78.40
38480;DHT22;62333;51.980;5.934;2024-03-23T05:23:43;11.80;78.30
38480;DHT22;62333;51.980;5.934;2024-03-23T05:26:09;11.70;78.20
38480;DHT22;62333;51.980;5.934;2024-03-23T05:28:35;11.70;78.30
38480;DHT22;62333;51.980;5.934;2024-03-23T05:31:01;11.70;78.30
38480;DHT22;62333;51.980;5.934;2024-03-23T05:33:26;11.60;78.20
38480;DHT22;62333;51.980;5.934;2024-03-23T05:36:01;11.60;78.20
38480;DHT22;62333;51.980;5.934;2024-03-23T05:38:27;11.60;78.10
38480;DHT22;62333;51.980;5.934;2024-03-23T05:43:19;11.60;78.30
38480;DHT22;62333;51.980;5.934;2024-03-23T05:45:45;11.50;78.30
38480;DHT22;62333;51.980;5.934;2024-03-23T05:48:11;11.50;78.40
38480;DHT22;62333;51.980;5.934;2024-03-23T05:50:37;11.50;78.40
38480;DHT22;62333;51.980;5.934;2024-03-23T05:53:02;11.50;78.50
38480;DHT22;62333;51.980;5.934;2024-03-23T05:55:30;11.50;78.50
38480;DHT22;62333;51.980;5.934;2024-03-23T05:57:56;11.50;78.40
38480;DHT22;62333;51.980;5.934;2024-03-23T06:00:21;11.50;78.30
38480;DHT22;62333;51.980;5.934;2024-03-23T06:02:47;11.60;78.70
38480;DHT22;62333;51.980;5.934;2024-03-23T06:05:13;11.90;79.10
38480;DHT22;62333;51.980;5.934;2024-03-23T06:07:38;12.30;79.20
38480;DHT22;62333;51.980;5.934;2024-03-23T06:10:05;12.60;79.40
38480;DHT22;62333;51.980;5.934;2024-03-23T06:12:31;12.80;79.80
38480;DHT22;62333;51.980;5.934;2024-03-23T06:14:57;13.10;79.80
38480;DHT22;62333;51.980;5.934;2024-03-23T06:17:22;13.20;80.40
38480;DHT22;62333;51.980;5.934;2024-03-23T06:19:48;13.30;81.70
38480;DHT22;62333;51.980;5.934;2024-03-23T06:22:14;13.30;81.70
38480;DHT22;62333;51.980;5.934;2024-03-23T06:24:40;13.40;82.10
38480;DHT22;62333;51.980;5.934;2024-03-23T06:27:06;13.60;80.70
38480;DHT22;62333;51.980;5.934;2024-03-23T06:29:31;13.60;78.70
38480;DHT22;62333;51.980;5.934;2024-03-23T06:31:57;13.70;77.40
38480;DHT22;62333;51.980;5.934;2024-03-23T06:34:23;13.70;75.60
38480;DHT22;62333;51.980;5.934;2024-03-23T06:36:49;13.70;75.10
38480;DHT22;62333;51.980;5.934;2024-03-23T06:39:18;13.70;74.40
38480;DHT22;62333;51.980;5.934;2024-03-23T06:41:52;13.80;74.80
38480;DHT22;62333;51.980;5.934;2024-03-23T06:44:18;14.00;73.70
38480;DHT22;62333;51.980;5.934;2024-03-23T06:46:44;14.00;71.80
38480;DHT22;62333;51.980;5.934;2024-03-23T06:49:10;14.00;70.80
38480;DHT22;62333;51.980;5.934;2024-03-23T06:51:36;14.10;70.90
38480;DHT22;62333;51.980;5.934;2024-03-23T06:54:03;14.10;70.10
38480;DHT22;62333;51.980;5.934;2024-03-23T06:56:30;14.10;70.50
38480;DHT22;62333;51.980;5.934;2024-03-23T06:58:56;14.20;69.10
38480;DHT22;62333;51.980;5.934;2024-03-23T07:01:37;14.00;66.40
38480;DHT22;62333;51.980;5.934;2024-03-23T07:04:04;13.90;66.70
38480;DHT22;62333;51.980;5.934;2024-03-23T07:06:30;13.70;65.40
38480;DHT22;62333;51.980;5.934;2024-03-23T07:08:56;13.70;67.30
38480;DHT22;62333;51.980;5.934;2024-03-23T07:11:22;13.70;70.20
38480;DHT22;62333;51.980;5.934;2024-03-23T07:13:52;13.80;70.60
38480;DHT22;62333;51.980;5.934;2024-03-23T07:16:20;13.90;68.70
38480;DHT22;62333;51.980;5.934;2024-03-23T07:18:45;13.90;69.00
38480;DHT22;62333;51.980;5.934;2024-03-23T07:21:11;13.90;69.40
38480;DHT22;62333;51.980;5.934;2024-03-23T07:23:37;13.90;68.60
38480;DHT22;62333;51.980;5.934;2024-03-23T07:26:04;13.80;66.20
38480;DHT22;62333;51.980;5.934;2024-03-23T07:28:31;13.70;65.00
38480;DHT22;62333;51.980;5.934;2024-03-23T07:31:13;13.60;69.50
38480;DHT22;62333;51.980;5.934;2024-03-23T07:33:44;13.70;70.90
38480;DHT22;62333;51.980;5.934;2024-03-23T07:36:10;13.80;71.00
38480;DHT22;62333;51.980;5.934;2024-03-23T07:38:45;13.90;69.80
38480;DHT22;62333;51.980;5.934;2024-03-23T07:41:21;13.90;68.90
38480;DHT22;62333;51.980;5.934;2024-03-23T07:43:47;13.90;69.00
38480;DHT22;62333;51.980;5.934;2024-03-23T07:46:15;13.90;69.70
38480;DHT22;62333;51.980;5.934;2024-03-23T07:48:41;14.00;69.20
38480;DHT22;62333;51.980;5.934;2024-03-23T07:51:17;14.00;69.30
38480;DHT22;62333;51.980;5.934;2024-03-23T07:53:44;14.10;68.50
38480;DHT22;62333;51.980;5.934;2024-03-23T07:56:11;14.10;68.30
38480;DHT22;62333;51.980;5.934;2024-03-23T07:58:38;14.10;67.40
38480;DHT22;62333;51.980;5.934;2024-03-23T08:01:08;14.10;66.70
38480;DHT22;62333;51.980;5.934;2024-03-23T08:03:35;14.10;67.00
38480;DHT22;62333;51.980;5.934;2024-03-23T08:06:13;14.10;67.80
38480;DHT22;62333;51.980;5.934;2024-03-23T08:08:41;14.30;67.70
38480;DHT22;62333;51.980;5.934;2024-03-23T08:11:07;14.40;67.20
38480;DHT22;62333;51.980;5.934;2024-03-23T08:13:34;14.40;65.70
38480;DHT22;62333;51.980;5.934;2024-03-23T08:16:01;14.60;66.20
38480;DHT22;62333;51.980;5.934;2024-03-23T08:18:27;14.60;63.50
38480;DHT22;62333;51.980;5.934;2024-03-23T08:21:00;14.40;62.40
38480;DHT22;62333;51.980;5.934;2024-03-23T08:23:27;14.30;61.30
38480;DHT22;62333;51.980;5.934;2024-03-23T08:26:00;14.10;61.20
38480;DHT22;62333;51.980;5.934;2024-03-23T08:28:27;14.00;61.20
38480;DHT22;62333;51.980;5.934;2024-03-23T08:30:53;13.70;61.30
38480;DHT22;62333;51.980;5.934;2024-03-23T08:33:19;13.60;62.50
38480;DHT22;62333;51.980;5.934;2024-03-23T08:35:55;13.60;65.20
38480;DHT22;62333;51.980;5.934;2024-03-23T08:38:22;13.70;66.60
38480;DHT22;62333;51.980;5.934;2024-03-23T08:40:48;13.70;67.30
38480;DHT22;62333;51.980;5.934;2024-03-23T08:43:13;13.70;65.00
38480;DHT22;62333;51.980;5.934;2024-03-23T08:45:39;13.80;65.50
38480;DHT22;62333;51.980;5.934;2024-03-23T08:48:05;13.90;66.20
38480;DHT22;62333;51.980;5.934;2024-03-23T08:50:31;14.00;65.60
38480;DHT22;62333;51.980;5.934;2024-03-23T08:52:56;14.10;65.20
38480;DHT22;62333;51.980;5.934;2024-03-23T08:55:22;14.20;64.40
38480;DHT22;62333;51.980;5.934;2024-03-23T08:57:47;14.30;63.70
38480;DHT22;62333;51.980;5.934;2024-03-23T09:00:13;14.40;64.40
38480;DHT22;62333;51.980;5.934;2024-03-23T09:02:39;14.50;62.10
38480;DHT22;62333;51.980;5.934;2024-03-23T09:05:05;14.40;59.90
38480;DHT22;62333;51.980;5.934;2024-03-23T09:07:31;14.30;59.10
38480;DHT22;62333;51.980;5.934;2024-03-23T09:09:57;14.10;58.20
38480;DHT22;62333;51.980;5.934;2024-03-23T09:12:23;13.90;58.10
38480;DHT22;62333;51.980;5.934;2024-03-23T09:14:50;13.60;58.50
38480;DHT22;62333;51.980;5.934;2024-03-23T09:17:16;13.30;58.40
38480;DHT22;62333;51.980;5.934;2024-03-23T09:19:41;13.20;59.00
38480;DHT22;62333;51.980;5.934;2024-03-23T09:22:07;13.10;59.30
38480;DHT22;62333;51.980;5.934;2024-03-23T09:24:33;13.00;59.60
38480;DHT22;62333;51.980;5.934;2024-03-23T09:26:58;12.90;60.10
38480;DHT22;62333;51.980;5.934;2024-03-23T09:29:24;12.90;60.70
38480;DHT22;62333;51.980;5.934;2024-03-23T09:31:49;12.80;61.30
38480;DHT22;62333;51.980;5.934;2024-03-23T09:34:15;12.90;62.20
38480;DHT22;62333;51.980;5.934;2024-03-23T09:36:41;13.10;68.20
38480;DHT22;62333;51.980;5.934;2024-03-23T09:39:07;13.40;70.20
38480;DHT22;62333;51.980;5.934;2024-03-23T09:41:35;13.80;69.60
38480;DHT22;62333;51.980;5.934;2024-03-23T09:44:01;14.10;68.30
38480;DHT22;62333;51.980;5.934;2024-03-23T09:46:27;14.40;66.70
38480;DHT22;62333;51.980;5.934;2024-03-23T09:48:55;14.50;64.90
38480;DHT22;62333;51.980;5.934;2024-03-23T09:51:21;14.70;64.20
38480;DHT22;62333;51.980;5.934;2024-03-23T09:53:49;14.80;63.10
38480;DHT22;62333;51.980;5.934;2024-03-23T09:56:15;14.90;62.80
38480;DHT22;62333;51.980;5.934;2024-03-23T09:58:42;15.10;62.20
38480;DHT22;62333;51.980;5.934;2024-03-23T10:01:09;15.20;61.80
38480;DHT22;62333;51.980;5.934;2024-03-23T10:03:44;15.30;61.90
38480;DHT22;62333;51.980;5.934;2024-03-23T10:06:11;15.40;62.30
38480;DHT22;62333;51.980;5.934;2024-03-23T10:08:36;15.50;62.50
38480;DHT22;62333;51.980;5.934;2024-03-23T10:11:16;15.70;61.50
38480;DHT22;62333;51.980;5.934;2024-03-23T10:13:43;15.60;59.10
38480;DHT22;62333;51.980;5.934;2024-03-23T10:16:09;15.40;58.40
38480;DHT22;62333;51.980;5.934;2024-03-23T10:18:40;15.20;58.10
38480;DHT22;62333;51.980;5.934;2024-03-23T10:23:33;15.10;58.00
38480;DHT22;62333;51.980;5.934;2024-03-23T10:26:19;15.20;58.30
38480;DHT22;62333;51.980;5.934;2024-03-23T10:29:00;15.50;58.80
38480;DHT22;62333;51.980;5.934;2024-03-23T10:31:32;15.80;59.10
38480;DHT22;62333;51.980;5.934;2024-03-23T10:33:58;16.00;58.50
38480;DHT22;62333;51.980;5.934;2024-03-23T10:36:26;15.90;55.80
38480;DHT22;62333;51.980;5.934;2024-03-23T10:38:53;15.60;54.90
38480;DHT22;62333;51.980;5.934;2024-03-23T10:41:19;15.20;54.60
38480;DHT22;62333;51.980;5.934;2024-03-23T10:43:46;14.80;56.10
38480;DHT22;62333;51.980;5.934;2024-03-23T10:46:12;14.40;56.40
38480;DHT22;62333;51.980;5.934;2024-03-23T10:48:38;14.20;56.80
38480;DHT22;62333;51.980;5.934;2024-03-23T10:51:07;14.20;57.50
38480;DHT22;62333;51.980;5.934;2024-03-23T10:53:34;14.30;58.50
38480;DHT22;62333;51.980;5.934;2024-03-23T10:56:00;14.60;59.40
38480;DHT22;62333;51.980;5.934;2024-03-23T10:58:31;14.80;60.00
38480;DHT22;62333;51.980;5.934;2024-03-23T11:00:59;15.10;60.00
38480;DHT22;62333;51.980;5.934;2024-03-23T11:03:35;15.40;60.10
38480;DHT22;62333;51.980;5.934;2024-03-23T11:06:07;15.70;60.00
38480;DHT22;62333;51.980;5.934;2024-03-23T11:08:37;15.70;58.90
38480;DHT22;62333;51.980;5.934;2024-03-23T11:11:22;15.80;58.50
38480;DHT22;62333;51.980;5.934;2024-03-23T11:13:51;15.80;57.10
38480;DHT22;62333;51.980;5.934;2024-03-23T11:16:27;15.70;57.20
38480;DHT22;62333;51.980;5.934;2024-03-23T11:19:35;15.80;57.10
38480;DHT22;62333;51.980;5.934;2024-03-23T11:22:02;16.00;56.60
38480;DHT22;62333;51.980;5.934;2024-03-23T11:24:27;16.00;55.10
38480;DHT22;62333;51.980;5.934;2024-03-23T11:26:53;15.90;54.90
38480;DHT22;62333;51.980;5.934;2024-03-23T11:29:19;15.90;54.90
38480;DHT22;62333;51.980;5.934;2024-03-23T11:31:48;15.90;55.00
38480;DHT22;62333;51.980;5.934;2024-03-23T11:34:18;16.10;55.00
38480;DHT22;62333;51.980;5.934;2024-03-23T11:36:44;16.20;54.90
38480;DHT22;62333;51.980;5.934;2024-03-23T11:39:18;16.40;54.80
38480;DHT22;62333;51.980;5.934;2024-03-23T11:41:47;16.60;54.00
38480;DHT22;62333;51.980;5.934;2024-03-23T11:46:42;16.20;52.90
38480;DHT22;62333;51.980;5.934;2024-03-23T11:49:22;16.00;52.80
38480;DHT22;62333;51.980;5.934;2024-03-23T11:51:49;15.90;53.60
38480;DHT22;62333;51.980;5.934;2024-03-23T11:54:15;16.00;54.20
38480;DHT22;62333;51.980;5.934;2024-03-23T11:56:53;16.20;54.40
38480;DHT22;62333;51.980;5.934;2024-03-23T11:59:38;16.30;54.30
38480;DHT22;62333;51.980;5.934;2024-03-23T12:02:10;16.40;54.30
38480;DHT22;62333;51.980;5.934;2024-03-23T12:04:37;16.40;54.30
38480;DHT22;62333;51.980;5.934;2024-03-23T12:07:35;16.40;53.80
38480;DHT22;62333;51.980;5.934;2024-03-23T12:10:05;16.30;52.90
38480;DHT22;62333;51.980;5.934;2024-03-23T12:12:34;16.00;52.70
38480;DHT22;62333;51.980;5.934;2024-03-23T12:15:07;15.90;52.90
38480;DHT22;62333;51.980;5.934;2024-03-23T12:17:34;15.90;53.30
38480;DHT22;62333;51.980;5.934;2024-03-23T12:20:03;15.70;53.60
38480;DHT22;62333;51.980;5.934;2024-03-23T12:22:29;15.50;53.90
38480;DHT22;62333;51.980;5.934;2024-03-23T12:24:55;15.40;54.30
38480;DHT22;62333;51.980;5.934;2024-03-23T12:27:21;15.20;54.30
38480;DHT22;62333;51.980;5.934;2024-03-23T12:29:46;15.10;54.50
38480;DHT22;62333;51.980;5.934;2024-03-23T12:32:13;15.10;54.90
38480;DHT22;62333;51.980;5.934;2024-03-23T12:34:39;15.20;55.00
38480;DHT22;62333;51.980;5.934;2024-03-23T12:37:05;15.20;55.00
38480;DHT22;62333;51.980;5.934;2024-03-23T12:39:34;15.30;55.10
38480;DHT22;62333;51.980;5.934;2024-03-23T12:42:03;15.40;55.10
38480;DHT22;62333;51.980;5.934;2024-03-23T12:44:29;15.40;54.80
38480;DHT22;62333;51.980;5.934;2024-03-23T12:46:55;15.60;55.00
38480;DHT22;62333;51.980;5.934;2024-03-23T12:49:20;15.70;54.50
38480;DHT22;62333;51.980;5.934;2024-03-23T12:51:55;15.80;53.30
38480;DHT22;62333;51.980;5.934;2024-03-23T12:54:21;15.90;53.30
38480;DHT22;62333;51.980;5.934;2024-03-23T12:56:47;15.80;52.70
38480;DHT22;62333;51.980;5.934;2024-03-23T12:59:13;15.70;52.40
38480;DHT22;62333;51.980;5.934;2024-03-23T13:01:39;15.50;51.80
38480;DHT22;62333;51.980;5.934;2024-03-23T13:04:05;15.30;52.40
38480;DHT22;62333;51.980;5.934;2024-03-23T13:06:31;15.20;52.90
38480;DHT22;62333;51.980;5.934;2024-03-23T13:09:03;15.30;53.40
38480;DHT22;62333;51.980;5.934;2024-03-23T13:11:29;15.40;53.40
38480;DHT22;62333;51.980;5.934;2024-03-23T13:13:55;15.40;53.70
38480;DHT22;62333;51.980;5.934;2024-03-23T13:16:20;15.40;52.90
38480;DHT22;62333;51.980;5.934;2024-03-23T13:18:46;15.40;52.30
38480;DHT22;62333;51.980;5.934;2024-03-23T13:21:12;15.40;51.70
38480;DHT22;62333;51.980;5.934;2024-03-23T13:23:37;15.30;50.90
38480;DHT22;62333;51.980;5.934;2024-03-23T13:26:06;15.20;51.10
38480;DHT22;62333;51.980;5.934;2024-03-23T13:28:33;15.10;51.20
38480;DHT22;62333;51.980;5.934;2024-03-23T13:30:58;15.10;51.00
38480;DHT22;62333;51.980;5.934;2024-03-23T13:33:29;14.90;51.00
38480;DHT22;62333;51.980;5.934;2024-03-23T13:35:55;14.90;50.90
38480;DHT22;62333;51.980;5.934;2024-03-23T13:38:22;14.70;51.20
38480;DHT22;62333;51.980;5.934;2024-03-23T13:40:55;14.70;51.60
38480;DHT22;62333;51.980;5.934;2024-03-23T13:43:22;14.70;51.90
38480;DHT22;62333;51.980;5.934;2024-03-23T13:45:49;14.70;52.10
38480;DHT22;62333;51.980;5.934;2024-03-23T13:48:16;14.70;52.40
38480;DHT22;62333;51.980;5.934;2024-03-23T13:50:43;14.60;52.30
38480;DHT22;62333;51.980;5.934;2024-03-23T13:53:09;14.70;52.60
38480;DHT22;62333;51.980;5.934;2024-03-23T13:55:34;14.60;52.50
38480;DHT22;62333;51.980;5.934;2024-03-23T13:58:01;14.50;52.60
38480;DHT22;62333;51.980;5.934;2024-03-23T14:00:27;14.40;52.90
38480;DHT22;62333;51.980;5.934;2024-03-23T14:02:52;14.40;53.20
38480;DHT22;62333;51.980;5.934;2024-03-23T14:05:18;14.30;53.30
38480;DHT22;62333;51.980;5.934;2024-03-23T14:07:43;14.10;53.60
38480;DHT22;62333;51.980;5.934;2024-03-23T14:10:09;14.00;53.60
38480;DHT22;62333;51.980;5.934;2024-03-23T14:12:38;13.90;54.00
38480;DHT22;62333;51.980;5.934;2024-03-23T14:15:07;13.80;54.40
38480;DHT22;62333;51.980;5.934;2024-03-23T14:17:33;13.80;54.60
38480;DHT22;62333;51.980;5.934;2024-03-23T14:19:59;13.70;54.90
38480;DHT22;62333;51.980;5.934;2024-03-23T14:22:31;13.70;55.40
38480;DHT22;62333;51.980;5.934;2024-03-23T14:24:56;13.90;56.00
38480;DHT22;62333;51.980;5.934;2024-03-23T14:27:22;14.10;56.50
38480;DHT22;62333;51.980;5.934;2024-03-23T14:29:48;14.20;56.70
38480;DHT22;62333;51.980;5.934;2024-03-23T14:32:14;14.30;56.60
38480;DHT22;62333;51.980;5.934;2024-03-23T14:34:41;14.20;56.20
38480;DHT22;62333;51.980;5.934;2024-03-23T14:37:07;14.10;56.20
38480;DHT22;62333;51.980;5.934;2024-03-23T14:39:33;14.10;56.30
38480;DHT22;62333;51.980;5.934;2024-03-23T14:42:04;14.00;56.30
38480;DHT22;62333;51.980;5.934;2024-03-23T14:44:31;13.90;56.10
38480;DHT22;62333;51.980;5.934;2024-03-23T14:46:57;13.70;56.20
38480;DHT22;62333;51.980;5.934;2024-03-23T14:49:23;13.60;56.00
38480;DHT22;62333;51.980;5.934;2024-03-23T14:51:50;13.50;56.00
38480;DHT22;62333;51.980;5.934;2024-03-23T14:54:15;13.40;56.30
38480;DHT22;62333;51.980;5.934;2024-03-23T14:56:41;13.40;56.70
38480;DHT22;62333;51.980;5.934;2024-03-23T14:59:07;13.40;57.00
38480;DHT22;62333;51.980;5.934;2024-03-23T15:01:33;13.40;57.20
38480;DHT22;62333;51.980;5.934;2024-03-23T15:03:59;13.40;57.20
38480;DHT22;62333;51.980;5.934;2024-03-23T15:06:25;13.40;57.10
38480;DHT22;62333;51.980;5.934;2024-03-23T15:08:51;13.40;57.20
38480;DHT22;62333;51.980;5.934;2024-03-23T15:11:16;13.30;57.20
38480;DHT22;62333;51.980;5.934;2024-03-23T15:13:45;13.30;57.20
38480;DHT22;62333;51.980;5.934;2024-03-23T15:16:10;13.30;57.10
38480;DHT22;62333;51.980;5.934;2024-03-23T15:18:36;13.30;57.20
38480;DHT22;62333;51.980;5.934;2024-03-23T15:21:03;13.30;57.20
38480;DHT22;62333;51.980;5.934;2024-03-23T15:23:33;13.30;57.40
38480;DHT22;62333;51.980;5.934;2024-03-23T15:25:59;13.40;57.40
38480;DHT22;62333;51.980;5.934;2024-03-23T15:28:29;13.40;57.30
38480;DHT22;62333;51.980;5.934;2024-03-23T15:31:06;13.40;57.30
38480;DHT22;62333;51.980;5.934;2024-03-23T15:33:32;13.40;57.30
38480;DHT22;62333;51.980;5.934;2024-03-23T15:36:04;13.50;57.10
38480;DHT22;62333;51.980;5.934;2024-03-23T15:38:31;13.50;56.90
38480;DHT22;62333;51.980;5.934;2024-03-23T15:40:59;13.50;57.10
38480;DHT22;62333;51.980;5.934;2024-03-23T15:43:25;13.50;57.20
38480;DHT22;62333;51.980;5.934;2024-03-23T15:45:55;13.60;56.80
38480;DHT22;62333;51.980;5.934;2024-03-23T15:48:21;13.60;56.70
38480;DHT22;62333;51.980;5.934;2024-03-23T15:50:58;13.50;56.70
38480;DHT22;62333;51.980;5.934;2024-03-23T15:53:25;13.50;56.90
38480;DHT22;62333;51.980;5.934;2024-03-23T15:55:58;13.40;57.00
38480;DHT22;62333;51.980;5.934;2024-03-23T15:58:24;13.40;57.30
38480;DHT22;62333;51.980;5.934;2024-03-23T16:01:03;13.40;57.50
38480;DHT22;62333;51.980;5.934;2024-03-23T16:03:30;13.30;56.60
38480;DHT22;62333;51.980;5.934;2024-03-23T16:06:07;13.20;56.30
38480;DHT22;62333;51.980;5.934;2024-03-23T16:08:33;13.20;56.00
38480;DHT22;62333;51.980;5.934;2024-03-23T16:11:05;13.10;56.30
38480;DHT22;62333;51.980;5.934;2024-03-23T16:13:33;13.10;56.90
38480;DHT22;62333;51.980;5.934;2024-03-23T16:16:03;13.10;56.40
38480;DHT22;62333;51.980;5.934;2024-03-23T16:18:29;13.00;56.30
38480;DHT22;62333;51.980;5.934;2024-03-23T16:20:57;13.00;56.50
38480;DHT22;62333;51.980;5.934;2024-03-23T16:23:23;13.10;56.50
38480;DHT22;62333;51.980;5.934;2024-03-23T16:25:53;13.10;56.50
38480;DHT22;62333;51.980;5.934;2024-03-23T16:28:31;13.00;56.30
38480;DHT22;62333;51.980;5.934;2024-03-23T16:31:02;12.90;56.30
38480;DHT22;62333;51.980;5.934;2024-03-23T16:33:29;12.80;56.50